Terminal Aerodrome Forecast
Issued by NWS

Home | Current Version | Previous Version | Text Only | Print | Product List | Glossary On
Versions: 1 2 3 4 5 6 7 8 9 10 11 12 13
935
FTUS45 KRIW 212322
TAFLND
TAF
KLND 212322Z 2200/2224 30010KT P6SM FEW080 BKN200
     FM220100 25011KT P6SM BKN200 WS014/27045KT
     FM220900 25009KT P6SM BKN200 WS016/27055KT
     FM221800 27018G28KT P6SM FEW090 BKN200=

USA.gov is the U.S. government's official web portal to all federal, state and local government web resources and services.